createdAt,value
2023-05-23T00:02:55.489Z,17.67
2023-05-23T00:07:58.128Z,20.98
2023-05-23T00:13:00.724Z,21.23
2023-05-23T00:18:03.545Z,18.48
2023-05-23T00:23:06.185Z,20.95
2023-05-23T00:28:09.200Z,17.25
2023-05-23T00:33:14.535Z,14.20
2023-05-23T00:38:17.722Z,17.13
2023-05-23T00:43:22.719Z,18.30
2023-05-23T00:48:26.365Z,15.52
2023-05-23T00:53:29.174Z,16.80
2023-05-23T00:58:32.235Z,17.80
2023-05-23T01:03:34.944Z,17.85
2023-05-23T01:08:38.147Z,24.23
2023-05-23T01:13:47.912Z,18.90
2023-05-23T01:18:59.240Z,17.02
2023-05-23T01:24:36.575Z,18.98
2023-05-23T01:29:47.982Z,18.20
2023-05-23T01:34:53.479Z,19.67
2023-05-23T01:39:56.205Z,15.43
2023-05-23T01:44:59.679Z,12.35
2023-05-23T01:50:03.094Z,17.40
2023-05-23T01:55:09.877Z,21.00
2023-05-23T02:00:15.549Z,14.05
2023-05-23T02:05:18.261Z,13.75
2023-05-23T02:10:21.553Z,15.88
2023-05-23T02:15:24.367Z,15.05
2023-05-23T02:20:27.079Z,17.25
2023-05-23T02:25:29.804Z,17.02
2023-05-23T02:30:32.622Z,18.65
2023-05-23T02:35:35.376Z,14.45
2023-05-23T02:40:37.982Z,10.98
2023-05-23T02:45:40.849Z,15.93
2023-05-23T02:50:44.328Z,14.45
2023-05-23T02:55:47.111Z,11.00
2023-05-23T03:00:49.729Z,14.20
2023-05-23T03:05:52.516Z,17.13
2023-05-23T03:10:55.191Z,12.90
2023-05-23T03:15:57.861Z,11.82
2023-05-23T03:21:00.628Z,16.85
2023-05-23T03:26:04.055Z,20.45
2023-05-23T03:31:06.789Z,20.45
2023-05-23T03:36:09.541Z,15.07
2023-05-23T03:41:12.211Z,20.00
2023-05-23T03:46:15.743Z,26.40
2023-05-23T03:51:18.642Z,17.92
2023-05-23T03:56:21.606Z,21.05
2023-05-23T04:01:25.132Z,16.77
2023-05-23T04:06:31.359Z,17.17
2023-05-23T04:11:34.285Z,17.92
2023-05-23T04:16:38.433Z,17.67
2023-05-23T04:21:41.356Z,21.45
2023-05-23T04:26:46.119Z,18.80
2023-05-23T04:31:48.989Z,22.25
2023-05-23T04:36:53.960Z,16.90
2023-05-23T04:41:57.966Z,17.92
2023-05-23T04:47:25.020Z,20.10
2023-05-23T04:52:37.204Z,19.52
2023-05-23T04:57:40.302Z,29.38
2023-05-23T05:02:43.704Z,19.95
2023-05-23T05:07:46.463Z,22.25
2023-05-23T05:12:52.039Z,19.55
2023-05-23T05:17:55.391Z,15.18
2023-05-23T05:22:58.651Z,18.70
2023-05-23T05:28:08.592Z,32.67
2023-05-23T05:33:19.720Z,28.25
2023-05-23T05:38:22.757Z,16.27
2023-05-23T05:43:26.836Z,18.63
2023-05-23T05:48:29.851Z,15.57
2023-05-23T05:53:37.114Z,14.43
2023-05-23T05:58:40.693Z,17.02
2023-05-23T06:03:48.696Z,16.38
2023-05-23T06:08:51.501Z,13.10
2023-05-23T06:13:54.298Z,13.68
2023-05-23T06:18:57.229Z,16.55
2023-05-23T06:24:03.662Z,15.75
2023-05-23T06:29:06.677Z,18.83
2023-05-23T06:34:10.419Z,17.13
2023-05-23T06:39:13.024Z,27.15
2023-05-23T06:44:15.852Z,10.63
2023-05-23T06:49:18.500Z,15.05
2023-05-23T06:54:21.520Z,19.55
2023-05-23T06:59:25.269Z,12.63
2023-05-23T07:04:28.433Z,11.43
2023-05-23T07:09:35.710Z,15.32
2023-05-23T07:14:45.040Z,8.95
2023-05-23T07:19:47.740Z,13.63
2023-05-23T07:24:50.576Z,11.95
2023-05-23T07:29:53.976Z,12.93
2023-05-23T07:34:56.653Z,15.70
2023-05-23T07:40:01.430Z,14.35
2023-05-23T07:45:06.225Z,12.75
2023-05-23T07:50:09.689Z,12.57
2023-05-23T07:55:13.641Z,11.13
2023-05-23T08:00:16.949Z,12.68
2023-05-23T08:05:20.001Z,6.80
2023-05-23T08:10:28.373Z,9.05
2023-05-23T08:15:37.792Z,8.68
2023-05-23T08:20:49.418Z,10.73
2023-05-23T08:25:53.231Z,14.15
2023-05-23T08:30:57.406Z,10.00
2023-05-23T08:36:01.328Z,10.93
2023-05-23T08:41:09.856Z,7.05
2023-05-23T08:46:14.637Z,6.20
2023-05-23T08:51:20.204Z,14.73
2023-05-23T08:56:28.474Z,10.32
2023-05-23T09:01:34.145Z,10.95
2023-05-23T09:06:39.364Z,9.63
2023-05-23T09:11:46.105Z,11.90
2023-05-23T09:16:50.443Z,7.20
2023-05-23T09:21:58.071Z,12.60
2023-05-23T09:27:05.987Z,11.57
2023-05-23T09:32:20.414Z,16.50
2023-05-23T09:37:34.094Z,9.70
2023-05-23T09:42:45.576Z,8.15
2023-05-23T09:47:52.979Z,15.60
2023-05-23T09:52:55.786Z,10.02
2023-05-23T09:58:00.184Z,10.43
2023-05-23T10:03:14.857Z,9.45
2023-05-23T10:08:30.272Z,14.23
2023-05-23T10:13:33.522Z,9.52
2023-05-23T10:18:43.958Z,8.00
2023-05-23T10:23:48.285Z,10.10
2023-05-23T10:28:52.181Z,8.38
2023-05-23T10:34:05.074Z,9.90
2023-05-23T10:39:36.996Z,11.30
2023-05-23T10:44:39.673Z,10.60
2023-05-23T10:49:47.745Z,11.73
2023-05-23T11:07:35.578Z,10.57
2023-05-23T11:12:42.869Z,7.43
2023-05-23T11:17:56.745Z,10.35
2023-05-23T11:23:07.633Z,10.35
2023-05-23T11:28:11.825Z,10.60
2023-05-23T11:33:17.202Z,11.18
2023-05-23T11:38:20.168Z,21.23
2023-05-23T11:43:22.909Z,12.77
2023-05-23T11:48:25.579Z,10.65
2023-05-23T11:53:28.736Z,13.80
2023-05-23T11:58:34.242Z,12.00
2023-05-23T12:03:51.483Z,11.13
2023-05-23T12:08:54.496Z,15.52
2023-05-23T12:13:57.927Z,21.77
2023-05-23T12:19:02.286Z,14.45
2023-05-23T12:24:17.405Z,15.88
2023-05-23T12:29:22.426Z,16.65
2023-05-23T12:34:25.283Z,13.07
2023-05-23T12:39:29.314Z,16.30
2023-05-23T12:44:32.282Z,15.27
2023-05-23T12:49:34.930Z,16.85
2023-05-23T12:54:37.615Z,16.17
2023-05-23T12:59:40.357Z,15.43
2023-05-23T13:04:43.066Z,16.13
2023-05-23T13:09:47.534Z,13.85
2023-05-23T13:14:51.599Z,12.40
2023-05-23T13:19:54.397Z,17.58
2023-05-23T13:24:57.051Z,18.98
2023-05-23T13:29:59.907Z,15.68
2023-05-23T13:35:02.630Z,16.92
2023-05-23T13:40:08.201Z,14.75
2023-05-23T13:45:11.236Z,14.93
2023-05-23T13:50:14.014Z,16.17
2023-05-23T13:55:17.527Z,11.68
2023-05-23T14:00:20.455Z,22.30
2023-05-23T14:05:23.600Z,13.73
2023-05-23T14:10:26.415Z,12.63
2023-05-23T14:15:30.132Z,14.13
2023-05-23T14:20:33.781Z,13.07
2023-05-23T14:25:36.552Z,15.68
2023-05-23T14:30:39.450Z,17.00
2023-05-23T15:16:00.751Z,20.95
2023-05-23T15:21:03.561Z,16.52
2023-05-23T15:26:06.279Z,14.18
2023-05-23T15:31:09.095Z,17.83
2023-05-23T15:36:13.314Z,16.98
2023-05-23T15:41:16.938Z,20.90
2023-05-23T15:46:19.779Z,17.38
2023-05-23T15:51:22.462Z,21.05
2023-05-23T15:56:25.152Z,19.38
2023-05-23T16:01:27.875Z,19.67
2023-05-23T16:06:31.719Z,20.20
2023-05-23T16:11:34.326Z,22.67
2023-05-23T16:16:37.008Z,29.95
2023-05-23T16:21:39.844Z,22.55
2023-05-23T16:26:42.621Z,22.75
2023-05-23T16:31:45.300Z,21.83
2023-05-23T16:36:47.989Z,27.88
2023-05-23T16:41:50.678Z,24.40
2023-05-23T16:46:53.355Z,24.25
2023-05-23T16:51:56.010Z,23.80
2023-05-23T16:57:01.756Z,18.80
2023-05-23T17:02:04.970Z,20.15
2023-05-23T17:07:09.398Z,22.70
2023-05-23T17:12:13.289Z,20.55
2023-05-23T17:17:18.650Z,27.00
2023-05-23T17:22:21.770Z,30.42
2023-05-23T17:27:24.364Z,29.92
2023-05-23T17:32:28.075Z,26.73
2023-05-23T17:37:31.026Z,29.98
2023-05-23T17:42:33.657Z,23.27
2023-05-23T17:47:36.392Z,23.58
2023-05-23T17:52:39.182Z,27.38
2023-05-23T17:57:41.845Z,20.48
2023-05-23T18:02:44.871Z,29.73
2023-05-23T18:07:47.839Z,28.13
2023-05-23T18:12:50.880Z,32.75
2023-05-23T18:17:55.606Z,26.17
2023-05-23T18:22:58.751Z,29.02
2023-05-23T18:28:02.297Z,24.70
2023-05-23T18:33:05.088Z,22.63
2023-05-23T18:38:07.854Z,22.48
2023-05-23T18:43:10.700Z,20.05
2023-05-23T18:48:13.380Z,26.67
2023-05-23T18:53:16.179Z,19.30
2023-05-23T18:58:19.046Z,16.05
2023-05-23T19:03:22.070Z,17.85
2023-05-23T19:08:24.721Z,16.67
2023-05-23T19:13:27.792Z,16.98
2023-05-23T19:18:30.563Z,15.88
2023-05-23T19:23:34.173Z,16.15
2023-05-23T19:28:37.150Z,16.92
2023-05-23T19:33:39.843Z,16.33
2023-05-23T19:38:42.514Z,17.75
2023-05-23T19:43:45.362Z,13.57
2023-05-23T19:48:48.792Z,9.90
2023-05-23T19:53:52.204Z,12.88
2023-05-23T19:58:55.021Z,11.10
2023-05-23T20:03:57.686Z,11.00
2023-05-23T20:09:00.311Z,11.13
2023-05-23T20:14:02.973Z,14.45
2023-05-23T20:19:06.587Z,12.65
2023-05-23T20:24:09.436Z,12.95
2023-05-23T20:29:12.301Z,10.50
2023-05-23T20:34:15.011Z,11.82
2023-05-23T20:39:20.084Z,13.55
2023-05-23T20:44:23.976Z,11.07
2023-05-23T20:49:27.791Z,13.63
2023-05-23T20:54:30.498Z,12.15
2023-05-23T20:59:33.247Z,9.95
2023-05-23T21:04:35.839Z,10.30
2023-05-23T21:09:38.617Z,14.63
2023-05-23T21:14:44.690Z,15.48
2023-05-23T21:19:47.366Z,12.05
2023-05-23T21:24:50.600Z,11.10
2023-05-23T21:29:53.171Z,17.05
2023-05-23T21:34:56.540Z,11.05
2023-05-23T21:39:59.055Z,16.65
2023-05-23T21:45:01.768Z,10.50
2023-05-23T21:50:08.242Z,12.77
2023-05-23T21:55:11.146Z,11.98
2023-05-23T22:00:14.628Z,14.10
2023-05-23T22:05:17.295Z,11.38
2023-05-23T22:10:20.114Z,13.40
2023-05-23T22:15:23.802Z,12.90
2023-05-23T22:20:27.972Z,13.90
2023-05-23T22:25:32.727Z,14.40
2023-05-23T22:30:35.734Z,17.17
2023-05-23T22:35:39.811Z,9.85
2023-05-23T22:40:42.770Z,14.40
2023-05-23T22:45:45.551Z,15.18
2023-05-23T22:50:48.198Z,11.93
2023-05-23T22:55:51.067Z,17.30
2023-05-23T23:00:53.870Z,17.58
2023-05-23T23:05:57.529Z,17.20
2023-05-23T23:11:00.164Z,15.23
2023-05-23T23:16:02.776Z,14.70
2023-05-23T23:21:06.014Z,13.30
2023-05-23T23:26:08.616Z,15.15
2023-05-23T23:31:11.381Z,26.23
2023-05-23T23:36:14.459Z,23.63
2023-05-23T23:41:17.121Z,16.92
2023-05-23T23:46:21.066Z,14.65
2023-05-23T23:51:23.809Z,15.35
2023-05-23T23:56:26.680Z,12.95
